createdAt,value
2023-05-02T00:00:54.040Z,95130.00
2023-05-02T00:01:54.117Z,95128.00
2023-05-02T00:02:54.331Z,95130.00
2023-05-02T00:03:54.294Z,95128.00
2023-05-02T00:04:54.236Z,95126.00
2023-05-02T00:05:54.727Z,95126.00
2023-05-02T00:06:54.462Z,95126.00
2023-05-02T00:07:54.290Z,95128.00
2023-05-02T00:08:54.415Z,95126.00
2023-05-02T00:09:54.428Z,95126.00
2023-05-02T00:10:54.729Z,95126.00
2023-05-02T00:11:54.555Z,95124.00
2023-05-02T00:12:54.592Z,95128.00
2023-05-02T00:13:54.667Z,95124.00
2023-05-02T00:14:54.737Z,95124.00
2023-05-02T00:15:54.731Z,95126.00
2023-05-02T00:16:54.742Z,95124.00
2023-05-02T00:17:54.840Z,95122.00
2023-05-02T00:18:54.844Z,95122.00
2023-05-02T00:19:54.856Z,95122.00
2023-05-02T00:20:55.227Z,95120.00
2023-05-02T00:21:54.979Z,95120.00
2023-05-02T00:22:55.020Z,95118.00
2023-05-02T00:23:55.024Z,95118.00
2023-05-02T00:24:55.052Z,95118.00
2023-05-02T00:25:55.265Z,95116.00
2023-05-02T00:26:55.114Z,95120.00
2023-05-02T00:27:55.138Z,95114.00
2023-05-02T00:28:55.206Z,95116.00
2023-05-02T00:29:55.259Z,95114.00
2023-05-02T00:30:55.800Z,95116.00
2023-05-02T00:31:55.357Z,95114.00
2023-05-02T00:32:55.477Z,95112.00
2023-05-02T00:33:55.506Z,95112.00
2023-05-02T00:34:55.532Z,95112.00
2023-05-02T00:35:55.764Z,95114.00
2023-05-02T00:36:55.680Z,95114.00
2023-05-02T00:37:55.764Z,95112.00
2023-05-02T00:38:55.774Z,95112.00
2023-05-02T00:39:55.749Z,95110.00
2023-05-02T00:40:56.274Z,95112.00
2023-05-02T00:41:55.812Z,95114.00
2023-05-02T00:42:55.877Z,95114.00
2023-05-02T00:43:55.939Z,95112.00
2023-05-02T00:44:56.006Z,95114.00
2023-05-02T00:45:56.306Z,95112.00
2023-05-02T00:46:56.133Z,95116.00
2023-05-02T00:47:56.250Z,95114.00
2023-05-02T00:48:56.174Z,95116.00
2023-05-02T00:49:56.226Z,95116.00
2023-05-02T00:50:56.776Z,95114.00
2023-05-02T00:51:56.348Z,95114.00
2023-05-02T00:52:56.411Z,95114.00
2023-05-02T00:53:56.483Z,95114.00
2023-05-02T00:54:56.548Z,95114.00
2023-05-02T00:55:56.806Z,95116.00
2023-05-02T00:56:56.588Z,95116.00
2023-05-02T00:57:56.647Z,95114.00
2023-05-02T00:58:56.684Z,95116.00
2023-05-02T00:59:56.788Z,95116.00
2023-05-02T01:00:56.796Z,95116.00
2023-05-02T01:01:56.943Z,95118.00
2023-05-02T01:02:56.972Z,95116.00
2023-05-02T01:03:57.054Z,95120.00
2023-05-02T01:04:57.019Z,95120.00
2023-05-02T01:05:57.294Z,95118.00
2023-05-02T01:06:57.044Z,95124.00
2023-05-02T01:07:57.067Z,95122.00
2023-05-02T01:08:57.060Z,95122.00
2023-05-02T01:09:57.324Z,95124.00
2023-05-02T01:10:57.341Z,95124.00
2023-05-02T01:11:57.178Z,95122.00
2023-05-02T01:12:57.241Z,95124.00
2023-05-02T01:13:57.287Z,95124.00
2023-05-02T01:14:57.375Z,95124.00
2023-05-02T01:15:57.889Z,95124.00
2023-05-02T01:16:57.482Z,95124.00
2023-05-02T01:17:57.592Z,95124.00
2023-05-02T01:18:57.549Z,95126.00
2023-05-02T01:19:57.728Z,95126.00
2023-05-02T01:20:57.813Z,95128.00
2023-05-02T01:21:57.724Z,95128.00
2023-05-02T01:22:57.744Z,95128.00
2023-05-02T01:23:57.823Z,95128.00
2023-05-02T01:24:57.844Z,95132.00
2023-05-02T01:25:58.260Z,95128.00
2023-05-02T01:26:57.943Z,95128.00
2023-05-02T01:27:58.017Z,95134.00
2023-05-02T01:28:58.012Z,95134.00
2023-05-02T01:29:58.389Z,95134.00
2023-05-02T01:30:58.282Z,95134.00
2023-05-02T01:31:58.346Z,95130.00
2023-05-02T01:32:58.279Z,95136.00
2023-05-02T01:33:58.310Z,95138.00
2023-05-02T01:34:58.326Z,95130.00
2023-05-02T01:35:58.437Z,95132.00
2023-05-02T01:36:58.465Z,95132.00
2023-05-02T01:37:58.521Z,95134.00
2023-05-02T01:38:58.605Z,95134.00
2023-05-02T01:39:58.991Z,95134.00
2023-05-02T01:40:58.809Z,95136.00
2023-05-02T01:41:58.677Z,95134.00
2023-05-02T01:42:58.718Z,95136.00
2023-05-02T01:43:58.842Z,95136.00
2023-05-02T01:44:58.820Z,95136.00
2023-05-02T01:45:58.874Z,95136.00
2023-05-02T01:46:59.020Z,95136.00
2023-05-02T01:47:59.072Z,95134.00
2023-05-02T01:48:59.034Z,95136.00
2023-05-02T01:49:59.362Z,95136.00
2023-05-02T01:50:59.169Z,95138.00
2023-05-02T01:51:59.179Z,95138.00
2023-05-02T01:52:59.258Z,95140.00
2023-05-02T01:53:59.208Z,95136.00
2023-05-02T01:54:59.279Z,95140.00
2023-05-02T01:55:59.343Z,95138.00
2023-05-02T01:56:59.306Z,95138.00
2023-05-02T01:57:59.344Z,95140.00
2023-05-02T01:58:59.409Z,95138.00
2023-05-02T01:59:59.639Z,95140.00
2023-05-02T02:00:59.527Z,95147.00
2023-05-02T02:01:59.531Z,95140.00
2023-05-02T02:02:59.596Z,95140.00
2023-05-02T02:03:59.659Z,95140.00
2023-05-02T02:04:59.648Z,95147.00
2023-05-02T02:05:59.799Z,95147.00
2023-05-02T02:06:59.689Z,95149.00
2023-05-02T02:07:59.680Z,95149.00
2023-05-02T02:08:59.690Z,95151.00
2023-05-02T02:09:59.850Z,95151.00
2023-05-02T02:10:59.741Z,95153.00
2023-05-02T02:11:59.725Z,95149.00
2023-05-02T02:12:59.768Z,95147.00
2023-05-02T02:13:59.749Z,95149.00
2023-05-02T02:14:59.769Z,95147.00
2023-05-02T02:15:59.771Z,95140.00
2023-05-02T02:17:00.951Z,95149.00
2023-05-02T02:17:59.844Z,95140.00
2023-05-02T02:18:59.846Z,95140.00
2023-05-02T02:20:00.241Z,95147.00
2023-05-02T02:20:59.959Z,95140.00
2023-05-02T02:21:59.976Z,95140.00
2023-05-02T02:22:59.971Z,95140.00
2023-05-02T02:23:59.995Z,95147.00
2023-05-02T02:24:59.950Z,95147.00
2023-05-02T02:25:59.999Z,95147.00
2023-05-02T02:27:00.006Z,95147.00
2023-05-02T02:28:00.025Z,95149.00
2023-05-02T02:29:00.007Z,95147.00
2023-05-02T02:30:00.257Z,95151.00
2023-05-02T02:31:00.045Z,95151.00
2023-05-02T02:32:00.113Z,95153.00
2023-05-02T02:33:00.106Z,95153.00
2023-05-02T02:34:00.106Z,95153.00
2023-05-02T02:35:00.060Z,95153.00
2023-05-02T02:36:00.133Z,95151.00
2023-05-02T02:37:00.333Z,95153.00
2023-05-02T02:38:00.122Z,95151.00
2023-05-02T02:39:00.189Z,95155.00
2023-05-02T02:40:00.553Z,95155.00
2023-05-02T02:41:00.257Z,95153.00
2023-05-02T02:42:00.253Z,95157.00
2023-05-02T02:43:00.266Z,95159.00
2023-05-02T02:44:00.236Z,95161.00
2023-05-02T02:45:00.291Z,95159.00
2023-05-02T02:46:00.307Z,95159.00
2023-05-02T02:47:00.250Z,95161.00
2023-05-02T02:48:00.304Z,95161.00
2023-05-02T02:49:00.281Z,95161.00
2023-05-02T02:50:00.604Z,95159.00
2023-05-02T02:51:00.290Z,95163.00
2023-05-02T02:52:00.268Z,95161.00
2023-05-02T02:53:00.244Z,95163.00
2023-05-02T02:54:00.260Z,95165.00
2023-05-02T02:55:00.307Z,95165.00
2023-05-02T02:56:00.333Z,95165.00
2023-05-02T02:57:00.359Z,95165.00
2023-05-02T02:58:00.362Z,95163.00
2023-05-02T02:59:00.365Z,95165.00
2023-05-02T03:00:00.534Z,95167.00
2023-05-02T03:01:00.352Z,95167.00
2023-05-02T03:02:00.419Z,95169.00
2023-05-02T03:03:00.491Z,95169.00
2023-05-02T03:04:00.480Z,95167.00
2023-05-02T03:05:00.395Z,95167.00
2023-05-02T03:06:00.454Z,95165.00
2023-05-02T03:07:00.829Z,95165.00
2023-05-02T03:08:00.444Z,95169.00
2023-05-02T03:09:00.438Z,95167.00
2023-05-02T03:10:00.814Z,95169.00
2023-05-02T03:11:00.414Z,95167.00
2023-05-02T03:12:00.433Z,95169.00
2023-05-02T03:13:00.440Z,95167.00
2023-05-02T03:14:00.408Z,95169.00
2023-05-02T03:15:00.453Z,95171.00
2023-05-02T03:16:00.512Z,95173.00
2023-05-02T03:17:00.480Z,95171.00
2023-05-02T03:18:00.533Z,95171.00
2023-05-02T03:19:00.585Z,95169.00
2023-05-02T03:20:00.909Z,95171.00
2023-05-02T03:21:00.615Z,95171.00
2023-05-02T03:22:00.854Z,95171.00
2023-05-02T03:23:00.669Z,95173.00
2023-05-02T03:24:00.665Z,95175.00
2023-05-02T03:25:00.806Z,95171.00
2023-05-02T03:26:00.750Z,95175.00
2023-05-02T03:27:00.740Z,95173.00
2023-05-02T03:28:00.761Z,95175.00
2023-05-02T03:29:00.707Z,95177.00
2023-05-02T03:30:01.056Z,95179.00
2023-05-02T03:31:00.869Z,95175.00
2023-05-02T03:32:00.813Z,95175.00
2023-05-02T03:33:00.808Z,95177.00
2023-05-02T03:34:00.814Z,95177.00
2023-05-02T03:35:00.822Z,95177.00
2023-05-02T03:36:00.828Z,95179.00
2023-05-02T03:37:00.919Z,95181.00
2023-05-02T03:38:00.870Z,95179.00
2023-05-02T03:39:00.872Z,95183.00
2023-05-02T03:40:01.223Z,95183.00
2023-05-02T03:41:00.860Z,95185.00
2023-05-02T03:42:01.364Z,95187.00
2023-05-02T03:43:00.911Z,95187.00
2023-05-02T03:44:00.912Z,95189.00
2023-05-02T03:45:00.889Z,95189.00
2023-05-02T03:46:00.908Z,95191.00
2023-05-02T03:47:00.965Z,95189.00
2023-05-02T03:48:00.943Z,95191.00
2023-05-02T03:49:00.894Z,95191.00
2023-05-02T03:50:01.203Z,95193.00
2023-05-02T03:51:00.901Z,95194.00
2023-05-02T03:52:00.959Z,95193.00
2023-05-02T03:53:00.941Z,95193.00
2023-05-02T03:54:00.929Z,95194.00
2023-05-02T03:55:00.930Z,95196.00
2023-05-02T03:56:00.970Z,95193.00
2023-05-02T03:57:00.986Z,95194.00
2023-05-02T03:58:01.000Z,95193.00
2023-05-02T03:59:01.010Z,95193.00
2023-05-02T04:00:01.310Z,95193.00
2023-05-02T04:01:01.049Z,95196.00
2023-05-02T04:02:01.149Z,95196.00
2023-05-02T04:03:01.131Z,95196.00
2023-05-02T04:04:01.163Z,95198.00
2023-05-02T04:05:01.109Z,95200.00
2023-05-02T04:06:01.163Z,95198.00
2023-05-02T04:07:01.130Z,95200.00
2023-05-02T04:08:01.090Z,95202.00
2023-05-02T04:09:01.136Z,95202.00
2023-05-02T04:10:01.241Z,95200.00
2023-05-02T04:11:01.202Z,95206.00
2023-05-02T04:12:01.203Z,95204.00
2023-05-02T04:13:01.213Z,95204.00
2023-05-02T04:14:01.221Z,95208.00
2023-05-02T04:15:01.251Z,95206.00
2023-05-02T04:16:01.304Z,95208.00
2023-05-02T04:17:01.364Z,95208.00
2023-05-02T04:18:01.418Z,95212.00
2023-05-02T04:19:01.415Z,95212.00
2023-05-02T04:20:04.875Z,95212.00
2023-05-02T04:21:01.375Z,95214.00
2023-05-02T04:22:01.370Z,95216.00
2023-05-02T04:23:01.344Z,95216.00
2023-05-02T04:24:01.401Z,95216.00
2023-05-02T04:25:01.349Z,95216.00
2023-05-02T04:26:01.373Z,95218.00
2023-05-02T04:27:01.857Z,95218.00
2023-05-02T04:28:01.377Z,95218.00
2023-05-02T04:29:01.339Z,95220.00
2023-05-02T04:30:01.655Z,95220.00
2023-05-02T04:31:01.400Z,95222.00
2023-05-02T04:32:01.303Z,95224.00
2023-05-02T04:33:01.351Z,95224.00
2023-05-02T04:34:01.318Z,95226.00
2023-05-02T04:35:01.268Z,95224.00
2023-05-02T04:36:01.264Z,95224.00
2023-05-02T04:37:01.282Z,95230.00
2023-05-02T04:38:01.281Z,95226.00
2023-05-02T04:39:01.249Z,95230.00
2023-05-02T04:40:01.426Z,95234.00
2023-05-02T04:41:01.260Z,95236.00
2023-05-02T04:42:02.273Z,95234.00
2023-05-02T04:43:01.239Z,95238.00
2023-05-02T04:44:01.299Z,95238.00
2023-05-02T04:45:01.236Z,95238.00
2023-05-02T04:46:01.283Z,95240.00
2023-05-02T04:47:01.200Z,95242.00
2023-05-02T04:48:01.307Z,95242.00
2023-05-02T04:49:01.211Z,95244.00
2023-05-02T04:50:01.460Z,95244.00
2023-05-02T04:51:01.197Z,95245.00
2023-05-02T04:52:01.167Z,95253.00
2023-05-02T04:53:01.180Z,95255.00
2023-05-02T04:54:01.147Z,95255.00
2023-05-02T04:55:01.160Z,95257.00
2023-05-02T04:56:01.121Z,95257.00
2023-05-02T04:57:01.173Z,95259.00
2023-05-02T04:58:01.151Z,95261.00
2023-05-02T04:59:01.104Z,95263.00
2023-05-02T05:00:01.354Z,95261.00
2023-05-02T05:01:01.124Z,95261.00
2023-05-02T05:02:01.181Z,95261.00
2023-05-02T05:03:01.935Z,95265.00
2023-05-02T05:04:01.281Z,95265.00
2023-05-02T05:05:01.089Z,95267.00
2023-05-02T05:06:01.128Z,95265.00
2023-05-02T05:07:01.168Z,95269.00
2023-05-02T05:08:01.067Z,95269.00
2023-05-02T05:09:01.051Z,95271.00
2023-05-02T05:10:01.269Z,95273.00
2023-05-02T05:11:01.013Z,95275.00
2023-05-02T05:12:01.384Z,95273.00
2023-05-02T05:13:01.025Z,95277.00
2023-05-02T05:14:01.007Z,95279.00
2023-05-02T05:15:00.999Z,95279.00
2023-05-02T05:16:01.066Z,95281.00
2023-05-02T05:17:01.019Z,95279.00
2023-05-02T05:18:01.020Z,95281.00
2023-05-02T05:19:01.030Z,95283.00
2023-05-02T05:20:01.205Z,95283.00
2023-05-02T05:21:00.964Z,95281.00
2023-05-02T05:22:00.983Z,95289.00
2023-05-02T05:23:00.951Z,95287.00
2023-05-02T05:24:00.957Z,95285.00
2023-05-02T05:25:00.915Z,95285.00
2023-05-02T05:26:00.925Z,95287.00
2023-05-02T05:27:00.913Z,95287.00
2023-05-02T05:28:00.922Z,95289.00
2023-05-02T05:29:00.925Z,95281.00
2023-05-02T05:30:01.103Z,95291.00
2023-05-02T05:31:00.920Z,95293.00
2023-05-02T05:32:00.950Z,95293.00
2023-05-02T05:33:00.915Z,95295.00
2023-05-02T05:34:00.960Z,95293.00
2023-05-02T05:35:00.886Z,95295.00
2023-05-02T05:36:00.878Z,95295.00
2023-05-02T05:37:00.856Z,95295.00
2023-05-02T05:38:00.893Z,95298.00
2023-05-02T05:39:00.859Z,95298.00
2023-05-02T05:40:01.092Z,95302.00
2023-05-02T05:41:00.838Z,95300.00
2023-05-02T05:42:00.844Z,95306.00
2023-05-02T05:43:00.825Z,95304.00
2023-05-02T05:44:00.839Z,95306.00
2023-05-02T05:45:01.026Z,95314.00
2023-05-02T05:46:00.846Z,95314.00
2023-05-02T05:47:00.908Z,95314.00
2023-05-02T05:48:00.887Z,95310.00
2023-05-02T05:49:00.831Z,95310.00
2023-05-02T05:50:01.432Z,95316.00
2023-05-02T05:51:00.841Z,95316.00
2023-05-02T05:52:00.845Z,95320.00
2023-05-02T05:53:00.853Z,95322.00
2023-05-02T05:54:00.827Z,95322.00
2023-05-02T05:55:00.816Z,95324.00
2023-05-02T05:56:00.873Z,95324.00
2023-05-02T05:57:00.895Z,95324.00
2023-05-02T05:58:00.883Z,95326.00
2023-05-02T05:59:01.009Z,95324.00
2023-05-02T06:00:01.260Z,95314.00
2023-05-02T06:01:01.118Z,95324.00
2023-05-02T06:02:01.171Z,95326.00
2023-05-02T06:03:01.333Z,95330.00
2023-05-02T06:04:01.319Z,95328.00
2023-05-02T06:05:01.398Z,95328.00
2023-05-02T06:06:01.340Z,95328.00
2023-05-02T06:07:01.421Z,95328.00
2023-05-02T06:08:01.928Z,95330.00
2023-05-02T06:09:01.474Z,95334.00
2023-05-02T06:10:01.908Z,95334.00
2023-05-02T06:11:01.617Z,95334.00
2023-05-02T06:12:01.600Z,95338.00
2023-05-02T06:13:01.938Z,95340.00
2023-05-02T06:14:01.660Z,95340.00
2023-05-02T06:15:01.671Z,95342.00
2023-05-02T06:16:01.736Z,95342.00
2023-05-02T06:17:01.733Z,95345.00
2023-05-02T06:18:01.966Z,95349.00
2023-05-02T06:19:01.808Z,95349.00
2023-05-02T06:20:02.160Z,95349.00
2023-05-02T06:21:01.844Z,95351.00
2023-05-02T06:22:01.841Z,95351.00
2023-05-02T06:23:01.880Z,95353.00
2023-05-02T06:24:01.899Z,95351.00
2023-05-02T06:25:01.933Z,95353.00
2023-05-02T06:26:01.954Z,95353.00
2023-05-02T06:27:01.926Z,95355.00
2023-05-02T06:28:01.925Z,95353.00
2023-05-02T06:29:01.977Z,95355.00
2023-05-02T06:30:02.391Z,95357.00
2023-05-02T06:31:02.133Z,95357.00
2023-05-02T06:32:02.077Z,95363.00
2023-05-02T06:33:02.441Z,95363.00
2023-05-02T06:34:01.962Z,95361.00
2023-05-02T06:35:02.046Z,95361.00
2023-05-02T06:36:02.411Z,95359.00
2023-05-02T06:37:01.956Z,95361.00
2023-05-02T06:38:02.394Z,95363.00
2023-05-02T06:39:01.910Z,95361.00
2023-05-02T06:40:02.306Z,95359.00
2023-05-02T06:41:01.948Z,95361.00
2023-05-02T06:42:02.040Z,95365.00
2023-05-02T06:43:02.051Z,95365.00
2023-05-02T06:44:01.998Z,95365.00
2023-05-02T06:45:02.038Z,95365.00
2023-05-02T06:46:02.084Z,95367.00
2023-05-02T06:47:02.127Z,95367.00
2023-05-02T06:48:02.080Z,95367.00
2023-05-02T06:49:02.090Z,95371.00
2023-05-02T06:50:02.536Z,95363.00
2023-05-02T06:51:02.161Z,95373.00
2023-05-02T06:52:02.186Z,95371.00
2023-05-02T06:53:02.241Z,95375.00
2023-05-02T06:54:02.242Z,95375.00
2023-05-02T06:55:02.325Z,95365.00
2023-05-02T06:56:02.328Z,95375.00
2023-05-02T06:57:02.344Z,95371.00
2023-05-02T06:58:02.398Z,95377.00
2023-05-02T06:59:02.400Z,95373.00
2023-05-02T07:00:02.703Z,95375.00
2023-05-02T07:01:02.528Z,95377.00
2023-05-02T07:02:05.145Z,95379.00
2023-05-02T07:03:02.443Z,95381.00
2023-05-02T07:04:02.419Z,95379.00
2023-05-02T07:05:02.392Z,95381.00
2023-05-02T07:06:02.406Z,95381.00
2023-05-02T07:07:02.398Z,95381.00
2023-05-02T07:08:02.535Z,95381.00
2023-05-02T07:09:02.386Z,95385.00
2023-05-02T07:10:02.655Z,95383.00
2023-05-02T07:11:02.385Z,95385.00
2023-05-02T07:12:04.518Z,95383.00
2023-05-02T07:13:02.376Z,95387.00
2023-05-02T07:14:02.356Z,95385.00
2023-05-02T07:15:02.366Z,95385.00
2023-05-02T07:16:02.340Z,95389.00
2023-05-02T07:17:02.409Z,95387.00
2023-05-02T07:18:02.374Z,95387.00
2023-05-02T07:19:02.345Z,95387.00
2023-05-02T07:20:02.473Z,95387.00
2023-05-02T07:21:02.284Z,95387.00
2023-05-02T07:22:02.330Z,95389.00
2023-05-02T07:23:02.281Z,95389.00
2023-05-02T07:24:02.386Z,95389.00
2023-05-02T07:25:02.255Z,95390.00
2023-05-02T07:26:03.826Z,95389.00
2023-05-02T07:27:02.249Z,95390.00
2023-05-02T07:28:02.229Z,95390.00
2023-05-02T07:29:02.270Z,95392.00
2023-05-02T07:30:02.604Z,95387.00
2023-05-02T07:31:02.269Z,95392.00
2023-05-02T07:32:02.296Z,95392.00
2023-05-02T07:33:02.264Z,95394.00
2023-05-02T07:34:02.247Z,95394.00
2023-05-02T07:35:02.210Z,95392.00
2023-05-02T07:36:02.194Z,95392.00
2023-05-02T07:37:02.212Z,95394.00
2023-05-02T07:38:02.158Z,95396.00
2023-05-02T07:39:02.214Z,95394.00
2023-05-02T07:40:02.708Z,95404.00
2023-05-02T07:41:02.180Z,95394.00
2023-05-02T07:42:02.199Z,95394.00
2023-05-02T07:43:02.216Z,95394.00
2023-05-02T07:44:02.174Z,95396.00
2023-05-02T07:45:02.122Z,95396.00
2023-05-02T07:46:02.151Z,95394.00
2023-05-02T07:47:02.187Z,95390.00
2023-05-02T07:48:02.147Z,95394.00
2023-05-02T07:49:02.147Z,95394.00
2023-05-02T07:50:02.293Z,95404.00
2023-05-02T07:51:02.095Z,95408.00
2023-05-02T07:52:02.111Z,95404.00
2023-05-02T07:53:02.133Z,95404.00
2023-05-02T07:54:02.130Z,95406.00
2023-05-02T07:55:02.070Z,95404.00
2023-05-02T07:56:02.067Z,95404.00
2023-05-02T07:57:02.140Z,95406.00
2023-05-02T07:58:02.041Z,95406.00
2023-05-02T07:59:03.149Z,95410.00
2023-05-02T08:00:02.453Z,95408.00
2023-05-02T08:01:02.066Z,95410.00
2023-05-02T08:02:01.999Z,95410.00
2023-05-02T08:03:02.124Z,95410.00
2023-05-02T08:04:02.166Z,95416.00
2023-05-02T08:05:02.075Z,95416.00
2023-05-02T08:06:02.107Z,95416.00
2023-05-02T08:07:02.048Z,95418.00
2023-05-02T08:09:02.164Z,95422.00
2023-05-02T08:10:02.628Z,95422.00
2023-05-02T08:11:02.320Z,95424.00
2023-05-02T08:12:02.333Z,95424.00
2023-05-02T08:13:02.413Z,95422.00
2023-05-02T08:14:02.471Z,95422.00
2023-05-02T08:15:02.518Z,95424.00
2023-05-02T08:16:02.627Z,95424.00
2023-05-02T08:17:02.632Z,95426.00
2023-05-02T08:18:02.746Z,95428.00
2023-05-02T08:19:02.745Z,95428.00
2023-05-02T08:20:02.957Z,95428.00
2023-05-02T08:21:02.857Z,95430.00
2023-05-02T08:22:02.929Z,95430.00
2023-05-02T08:23:02.989Z,95432.00
2023-05-02T08:24:03.048Z,95432.00
2023-05-02T08:25:03.109Z,95434.00
2023-05-02T08:26:03.143Z,95432.00
2023-05-02T08:27:03.225Z,95434.00
2023-05-02T08:28:03.295Z,95430.00
2023-05-02T08:29:03.317Z,95434.00
2023-05-02T08:30:03.725Z,95434.00
2023-05-02T08:31:03.436Z,95430.00
2023-05-02T08:32:03.613Z,95432.00
2023-05-02T08:33:03.951Z,95436.00
2023-05-02T08:34:03.627Z,95434.00
2023-05-02T08:35:03.679Z,95432.00
2023-05-02T08:36:03.750Z,95434.00
2023-05-02T08:37:03.805Z,95434.00
2023-05-02T08:38:03.873Z,95430.00
2023-05-02T08:39:04.854Z,95432.00
2023-05-02T08:40:04.160Z,95434.00
2023-05-02T08:41:03.851Z,95434.00
2023-05-02T08:42:03.878Z,95432.00
2023-05-02T08:43:03.943Z,95430.00
2023-05-02T08:44:03.870Z,95430.00
2023-05-02T08:45:03.884Z,95438.00
2023-05-02T08:46:03.823Z,95443.00
2023-05-02T08:47:03.901Z,95443.00
2023-05-02T08:48:03.906Z,95449.00
2023-05-02T08:49:03.913Z,95447.00
2023-05-02T08:50:04.085Z,95443.00
2023-05-02T08:51:04.020Z,95449.00
2023-05-02T08:52:04.089Z,95455.00
2023-05-02T08:53:04.144Z,95455.00
2023-05-02T08:54:04.187Z,95455.00
2023-05-02T08:55:04.441Z,95455.00
2023-05-02T08:56:04.338Z,95445.00
2023-05-02T08:57:04.415Z,95457.00
2023-05-02T08:58:04.444Z,95455.00
2023-05-02T08:59:04.577Z,95453.00
2023-05-02T09:00:04.543Z,95455.00
2023-05-02T09:01:04.673Z,95459.00
2023-05-02T09:02:04.652Z,95457.00
2023-05-02T09:03:05.048Z,95459.00
2023-05-02T09:04:04.773Z,95457.00
2023-05-02T09:05:04.780Z,95459.00
2023-05-02T09:06:04.889Z,95459.00
2023-05-02T09:07:04.850Z,95459.00
2023-05-02T09:08:04.892Z,95459.00
2023-05-02T09:09:04.944Z,95461.00
2023-05-02T09:10:04.974Z,95463.00
2023-05-02T09:11:05.039Z,95461.00
2023-05-02T09:12:05.019Z,95461.00
2023-05-02T09:13:05.086Z,95461.00
2023-05-02T09:14:05.119Z,95461.00
2023-05-02T09:15:05.135Z,95457.00
2023-05-02T09:16:05.255Z,95457.00
2023-05-02T09:17:05.289Z,95463.00
2023-05-02T09:18:06.064Z,95457.00
2023-05-02T09:19:05.278Z,95463.00
2023-05-02T09:20:05.290Z,95463.00
2023-05-02T09:21:05.336Z,95463.00
2023-05-02T09:22:05.370Z,95463.00
2023-05-02T09:23:05.428Z,95465.00
2023-05-02T09:24:05.426Z,95463.00
2023-05-02T09:25:05.471Z,95465.00
2023-05-02T09:26:05.534Z,95465.00
2023-05-02T09:27:05.578Z,95469.00
2023-05-02T09:28:05.564Z,95467.00
2023-05-02T09:29:05.586Z,95465.00
2023-05-02T09:30:06.500Z,95465.00
2023-05-02T09:31:06.547Z,95465.00
2023-05-02T09:32:05.757Z,95467.00
2023-05-02T09:33:06.001Z,95465.00
2023-05-02T09:34:05.798Z,95463.00
2023-05-02T09:35:05.770Z,95463.00
2023-05-02T09:36:05.819Z,95465.00
2023-05-02T09:37:05.870Z,95469.00
2023-05-02T09:38:06.024Z,95465.00
2023-05-02T09:39:05.913Z,95463.00
2023-05-02T09:40:05.944Z,95463.00
2023-05-02T09:41:05.981Z,95467.00
2023-05-02T09:42:06.037Z,95467.00
2023-05-02T09:43:06.070Z,95463.00
2023-05-02T09:44:06.090Z,95463.00
2023-05-02T09:45:06.121Z,95467.00
2023-05-02T09:46:06.244Z,95463.00
2023-05-02T09:47:06.168Z,95485.00
2023-05-02T09:48:06.490Z,95469.00
2023-05-02T09:49:06.274Z,95467.00
2023-05-02T09:50:06.351Z,95467.00
2023-05-02T09:51:06.286Z,95467.00
2023-05-02T09:52:06.345Z,95465.00
2023-05-02T09:53:06.492Z,95469.00
2023-05-02T09:54:06.409Z,95467.00
2023-05-02T09:55:06.418Z,95469.00
2023-05-02T09:56:06.478Z,95469.00
2023-05-02T09:57:06.499Z,95469.00
2023-05-02T09:58:06.982Z,95469.00
2023-05-02T09:59:06.597Z,95469.00
2023-05-02T10:00:06.649Z,95471.00
2023-05-02T10:01:06.778Z,95471.00
2023-05-02T10:02:06.730Z,95471.00
2023-05-02T10:03:07.074Z,95463.00
2023-05-02T10:04:06.880Z,95465.00
2023-05-02T10:05:06.895Z,95465.00
2023-05-02T10:06:06.950Z,95465.00
2023-05-02T10:07:07.001Z,95463.00
2023-05-02T10:08:07.474Z,95465.00
2023-05-02T10:09:07.108Z,95467.00
2023-05-02T10:10:07.154Z,95465.00
2023-05-02T10:11:07.275Z,95467.00
2023-05-02T10:12:07.261Z,95469.00
2023-05-02T10:13:07.519Z,95467.00
2023-05-02T10:14:07.421Z,95469.00
2023-05-02T10:15:07.467Z,95471.00
2023-05-02T10:16:07.630Z,95467.00
2023-05-02T10:17:07.571Z,95469.00
2023-05-02T10:18:07.687Z,95471.00
2023-05-02T10:19:07.708Z,95469.00
2023-05-02T10:20:07.889Z,95467.00
2023-05-02T10:21:07.819Z,95469.00
2023-05-02T10:22:07.844Z,95469.00
2023-05-02T10:23:07.955Z,95469.00
2023-05-02T10:24:08.008Z,95465.00
2023-05-02T10:25:08.058Z,95465.00
2023-05-02T10:26:08.084Z,95467.00
2023-05-02T10:27:08.137Z,95467.00
2023-05-02T10:28:08.092Z,95463.00
2023-05-02T10:29:08.148Z,95463.00
2023-05-02T10:30:08.156Z,95455.00
2023-05-02T10:31:08.152Z,95459.00
2023-05-02T10:32:08.332Z,95453.00
2023-05-02T10:33:08.304Z,95457.00
2023-05-02T10:34:08.320Z,95453.00
2023-05-02T10:35:08.318Z,95451.00
2023-05-02T10:36:08.350Z,95449.00
2023-05-02T10:37:08.441Z,95451.00
2023-05-02T10:38:08.431Z,95449.00
2023-05-02T10:39:08.474Z,95447.00
2023-05-02T10:40:08.531Z,95449.00
2023-05-02T10:41:08.476Z,95451.00
2023-05-02T10:42:08.507Z,95449.00
2023-05-02T10:43:08.554Z,95449.00
2023-05-02T10:44:08.589Z,95449.00
2023-05-02T10:45:08.598Z,95447.00
2023-05-02T10:46:08.609Z,95438.00
2023-05-02T10:47:08.679Z,95440.00
2023-05-02T10:48:08.730Z,95443.00
2023-05-02T10:49:08.663Z,95442.00
2023-05-02T10:50:08.714Z,95440.00
2023-05-02T10:51:08.652Z,95442.00
2023-05-02T10:52:08.682Z,95440.00
2023-05-02T10:53:08.683Z,95438.00
2023-05-02T10:54:08.731Z,95442.00
2023-05-02T10:55:08.800Z,95440.00
2023-05-02T10:56:08.799Z,95440.00
2023-05-02T10:57:08.899Z,95438.00
2023-05-02T10:58:08.987Z,95436.00
2023-05-02T10:59:09.016Z,95438.00
2023-05-02T11:00:09.084Z,95436.00
2023-05-02T11:01:09.171Z,95434.00
2023-05-02T11:02:09.285Z,95434.00
2023-05-02T11:03:09.384Z,95428.00
2023-05-02T11:04:09.353Z,95430.00
2023-05-02T11:05:09.425Z,95430.00
2023-05-02T11:06:09.484Z,95430.00
2023-05-02T11:07:09.492Z,95432.00
2023-05-02T11:08:10.000Z,95432.00
2023-05-02T11:09:09.624Z,95430.00
2023-05-02T11:10:09.727Z,95430.00
2023-05-02T11:11:09.735Z,95430.00
2023-05-02T11:12:09.830Z,95432.00
2023-05-02T11:13:09.849Z,95432.00
2023-05-02T11:14:09.934Z,95432.00
2023-05-02T11:15:09.969Z,95430.00
2023-05-02T11:16:10.121Z,95430.00
2023-05-02T11:17:10.157Z,95430.00
2023-05-02T11:18:10.546Z,95432.00
2023-05-02T11:19:10.194Z,95430.00
2023-05-02T11:20:10.252Z,95430.00
2023-05-02T11:21:10.294Z,95428.00
2023-05-02T11:22:10.371Z,95428.00
2023-05-02T11:23:10.508Z,95430.00
2023-05-02T11:24:10.431Z,95426.00
2023-05-02T11:25:10.487Z,95430.00
2023-05-02T11:26:10.514Z,95424.00
2023-05-02T11:27:10.602Z,95426.00
2023-05-02T11:28:10.640Z,95428.00
2023-05-02T11:29:10.690Z,95428.00
2023-05-02T11:30:10.813Z,95426.00
2023-05-02T11:31:10.768Z,95426.00
2023-05-02T11:32:10.885Z,95426.00
2023-05-02T11:33:10.971Z,95428.00
2023-05-02T11:34:10.918Z,95426.00
2023-05-02T11:35:11.009Z,95428.00
2023-05-02T11:36:11.025Z,95428.00
2023-05-02T11:37:11.105Z,95426.00
2023-05-02T11:38:11.567Z,95430.00
2023-05-02T11:39:11.207Z,95430.00
2023-05-02T11:40:11.342Z,95426.00
2023-05-02T11:41:11.233Z,95428.00
2023-05-02T11:42:11.260Z,95428.00
2023-05-02T11:43:11.355Z,95430.00
2023-05-02T11:44:11.502Z,95430.00
2023-05-02T11:45:11.393Z,95430.00
2023-05-02T11:46:11.409Z,95428.00